Terminal Aerodrome Forecast
Issued by NWS St Louis, MO

Home | Current Version | Previous Version | Graphics & Text | Print | Product List | Glossary On
Versions: 1 2 3 4 5 6 7 8 9 10 11 12 13 14 15 16 17 18 19 20 21
512
FTUS43 KLSX 061509 AAA
TAFSTL
TAF AMD
KSTL 061509Z 0615/0718 13003KT P6SM SCT080
     FM061600 23007KT P6SM SCT080
     FM071700 26013KT P6SM BKN120=

USA.gov is the U.S. government's official web portal to all federal, state and local government web resources and services.